Historyczne dane pomiarowe

Dodano dane terminowe – wersja testowa.

Dane z okresu 1951-2019

Wersja bazy: 1.34 [2019-03-16, lista zmian], aktualizacja planowana na 2019-04-15

Dane meteo z obszaru Polski uzyskane na podstawie danych udostępnionych przez Instytut Meteorologii i Gospodarki Wodnej – Państwowy Instytut Badawczy.

 

Wybierz Datę:    

       

TemperaturaWilgotnośćWiatrCiśnienieOpadyŚniegCzas trwania zjawisk
 Stacja t tx tn tng RH VA  wxwx mslp ppp RRR   cm mm wxwxwxwxwxwxwx
1999-08-14 16.1 20.1 12.0 10.8 82.3- 4.3 2.7---- 0.4------------
1999-08-13 15.5 19.0 13.8 12.5 88.0- 7.7 3.7---- 3.4------------
1999-08-12 17.2 23.1 11.7 10.9 76.5- 7.0 2.3---- 0.0------------
1999-08-11 17.5 21.7 13.8 13.3 91.0- 7.3 1.3---- 2.1------------
1999-08-10 18.3 25.3 14.0 14.0 89.5- 7.0 1.7---- 16.0------------
1999-08-09 21.3 29.0 17.4 16.3 84.5- 4.3 3.7---- 1.6------------
1999-08-08 19.7 25.2 16.4 14.1 90.3- 7.0 2.3---- 3.2------------
1999-08-07 21.2 28.1 15.1 13.3 74.3- 6.0 2.7---- 5.7------------
1999-08-06 21.1 29.5 14.3 13.3 61.3- 6.0 1.3---- 0.0------------
1999-08-05 19.9 28.1 10.5 8.7 67.8- 4.3 1.7---- 0.0------------
1999-08-04 18.8 26.1 10.7 8.4 60.5- 3.7 2.3---- 0.0------------
1999-08-03 19.7 26.7 13.2 9.9 72.5- 6.3 2.3---- 0.0------------
1999-08-02 20.2 26.7 14.4 11.3 65.8- 1.0 2.7---- 0.0------------
1999-08-01 20.6 26.2 14.7 12.5 60.5- 1.7 4.7---- 0.0------------
1999-07-31 20.2 27.2 13.7 10.9 75.5- 2.3 4.3---- 0.0------------
1999-07-30 19.4 25.7 12.6 9.1 71.8- 0.3 4.3---- 0.0------------
1999-07-29 18.4 24.6 11.0 8.5 71.5- 1.3 3.3---- 0.0------------
1999-07-28 17.9 23.5 12.2 10.7 70.3- 2.7 3.7---- 0.0------------
1999-07-27 16.4 21.4 10.5 7.8 66.3- 3.3 2.3---- 0.0------------
1999-07-26 17.4 22.6 13.6 12.6 91.3- 7.7 2.7---- 2.3------------
1999-07-25 20.3 25.1 15.7 15.2 79.5- 6.3 2.0---- 0.7------------
1999-07-24 17.3 21.4 12.1 11.0 81.5- 8.0 2.0---- 0.0------------
1999-07-23 17.2 22.9 11.0 10.4 74.8- 6.3 2.7---- 1.6------------
1999-07-22 18.4 22.4 15.1 14.4 81.8- 5.7 3.0---- 0.0------------
1999-07-21 21.6 29.1 16.3 15.8 85.0- 5.0 2.7---- 1.0------------
1999-07-20 21.8 30.5 18.6 11.6 75.3- 4.0 3.7---- 9.3------------
1999-07-19 20.2 26.1 15.3 13.3 80.0- 4.7 2.7---- 0.0------------
1999-07-18 19.0 26.7 13.1 12.8 81.3- 6.0 2.0---- 0.0------------
1999-07-17 16.6 22.8 10.5 9.9 78.8- 6.0 2.3---- 6.2------------
1999-07-16 16.5 21.9 11.6 10.4 69.3- 5.7 2.0---- 1.2------------
1999-07-15 17.7 21.4 15.5 15.5 78.0- 6.3 2.0---- 0.0------------
1999-07-14 20.7 26.3 17.2 16.7 86.5- 7.7 2.7---- 4.3------------
1999-07-13 22.9 28.8 16.4 15.4 71.5- 4.3 3.7---- 0.3------------
1999-07-12 21.5 27.6 13.0 11.5 67.3- 4.0 2.3---- 0.0------------
1999-07-11 20.7 27.6 12.8 11.3 67.5- 0.0 2.3---- 0.0------------
1999-07-10 19.3 25.3 13.5 12.2 69.3- 1.0 4.7---- 0.0------------
1999-07-09 17.3 21.4 14.6 13.9 74.8- 1.7 6.7---- 0.0------------
1999-07-08 17.8 20.6 15.4 15.2 90.3- 8.0 4.0---- 3.5------------
1999-07-07 18.2 22.2 15.5 15.5 86.0- 8.0 1.7---- 0.0------------
1999-07-06 22.4 31.0 15.5 15.5 81.5- 6.0 2.7---- 4.3------------
1999-07-05 23.9 31.2 15.5 15.3 75.5- 2.3 2.3---- 0.0------------
1999-07-04 20.9 29.3 13.8 13.4 84.0- 6.0 2.7---- 0.0------------
1999-07-03 18.8 24.2 11.7 11.3 83.0- 5.3 2.3---- 1.6------------
1999-07-02 17.0 22.2 13.1 13.1 84.5- 7.0 1.7---- 0.0------------
1999-07-01 18.5 24.8 12.8 12.3 87.5- 6.3 2.3---- 23.4------------
1999-06-30 19.4 25.6 11.5 10.8 72.5- 4.3 1.7---- 0.0------------
1999-06-29 18.2 24.3 13.7 12.9 79.0- 2.0 2.0---- 0.0------------
1999-06-28 20.9 28.6 12.2 10.6 74.0- 4.3 2.7---- 10.4------------
1999-06-27 18.2 26.7 6.8 6.1 73.0- 6.0 3.3---- 0.0------------
1999-06-26 13.3 18.8 6.8 6.2 82.0- 6.3 1.7---- 0.0------------
1999-06-25 13.8 17.5 10.6 10.0 77.3- 7.0 1.3---- 0.3------------
1999-06-24 13.1 16.9 9.9 9.9 89.8- 7.3 2.3---- 1.8------------
1999-06-23 12.1 14.4 9.4 9.3 92.0- 8.0 1.7---- 0.8------------
1999-06-22 12.4 15.7 10.1 9.8 91.0- 8.0 3.0---- 14.6------------
1999-06-21 17.1 22.9 12.8 12.6 79.3- 5.7 2.3---- 0.2------------
1999-06-20 19.6 25.3 15.2 14.9 71.0- 7.3 1.7---- 0.0------------
1999-06-19 19.6 26.6 14.8 14.5 89.0- 7.3 2.0---- 0.0------------
1999-06-18 17.8 23.9 10.3 9.5 76.3- 5.0 3.0---- 0.0------------
1999-06-17 17.1 24.5 11.8 10.7 80.3- 7.0 2.0---- 0.0------------
1999-06-16 17.4 23.0 13.7 13.7 80.0- 7.3 2.0---- 0.0------------
306.4 ms

 

Źródłem pochodzenia danych jest Instytut Meteorologii i Gospodarki Wodnej – Państwowy Instytut Badawczy. Dane Instytutu Meteorologii i Gospodarki Wodnej – Państwowego Instytutu Badawczego zostały przetworzone.

Dane źródłowe można odnaleźć na stronie https://dane.imgw.pl